createdAt,value
2017-08-01T00:00:38.057Z,86.30
2017-08-01T00:03:06.726Z,86.60
2017-08-01T00:08:04.942Z,88.30
2017-08-01T00:10:33.219Z,87.70
2017-08-01T00:13:01.491Z,87.80
2017-08-01T00:15:29.835Z,86.90
2017-08-01T00:17:58.503Z,86.70
2017-08-01T00:20:27.544Z,88.10
2017-08-01T00:22:55.920Z,87.90
2017-08-01T00:25:24.203Z,86.00
2017-08-01T00:27:52.508Z,87.50
2017-08-01T00:35:20.999Z,87.80
2017-08-01T00:37:49.329Z,87.10
2017-08-01T00:40:18.366Z,87.10
2017-08-01T00:42:46.643Z,87.30
2017-08-01T00:47:44.872Z,88.20
2017-08-01T00:50:13.143Z,88.40
2017-08-01T00:52:41.610Z,88.80
2017-08-01T00:55:11.026Z,88.40
2017-08-01T00:57:39.311Z,90.00
2017-08-01T01:02:37.555Z,90.00
2017-08-01T01:05:05.842Z,90.20
2017-08-01T01:07:34.926Z,90.10
2017-08-01T01:10:04.341Z,90.00
2017-08-01T01:15:02.943Z,90.60
2017-08-01T01:20:01.106Z,90.10
2017-08-01T01:22:29.710Z,90.40
2017-08-01T01:24:59.496Z,89.80
2017-08-01T01:29:57.319Z,90.80
2017-08-01T01:32:26.726Z,91.20
2017-08-01T01:34:55.082Z,91.10
2017-08-01T01:37:23.382Z,91.10
2017-08-01T01:39:51.671Z,91.40
2017-08-01T01:42:20.007Z,91.50
2017-08-01T01:44:48.303Z,92.10
2017-08-01T01:47:16.578Z,91.90
2017-08-01T01:49:46.027Z,92.20
2017-08-01T01:52:14.298Z,93.00
2017-08-01T01:54:42.974Z,92.70
2017-08-01T01:57:13.143Z,92.60
2017-08-01T01:59:42.186Z,92.70
2017-08-01T02:02:11.235Z,92.40
2017-08-01T02:04:40.350Z,92.40
2017-08-01T02:07:08.624Z,92.60
2017-08-01T02:09:38.404Z,92.40
2017-08-01T02:12:07.011Z,92.20
2017-08-01T02:14:36.794Z,92.20
2017-08-01T02:17:05.063Z,92.60
2017-08-01T02:19:33.733Z,92.80
2017-08-01T02:22:03.143Z,93.00
2017-08-01T02:24:31.422Z,93.10
2017-08-01T02:26:59.747Z,93.20
2017-08-01T02:29:29.531Z,93.10
2017-08-01T02:31:57.811Z,92.70
2017-08-01T02:34:27.167Z,93.00
2017-08-01T02:36:56.259Z,92.90
2017-08-01T02:39:24.564Z,93.30
2017-08-01T02:41:52.919Z,92.90
2017-08-01T02:44:21.206Z,92.50
2017-08-01T02:46:50.259Z,92.90
2017-08-01T02:51:48.909Z,93.10
2017-08-01T02:54:18.327Z,93.60
2017-08-01T02:56:46.663Z,93.40
2017-08-01T03:01:47.263Z,92.90
2017-08-01T03:04:15.535Z,93.30
2017-08-01T03:06:44.950Z,93.20
2017-08-01T03:09:13.276Z,93.20
2017-08-01T03:11:41.550Z,93.20
2017-08-01T03:14:10.622Z,93.40
2017-08-01T03:16:40.130Z,92.90
2017-08-01T03:21:38.326Z,92.00
2017-08-01T03:24:06.795Z,92.10
2017-08-01T03:26:35.070Z,92.30
2017-08-01T03:31:34.023Z,92.90
2017-08-01T03:36:32.558Z,93.00
2017-08-01T03:41:30.402Z,93.00
2017-08-01T03:43:59.447Z,93.40
2017-08-01T03:46:27.794Z,93.00
2017-08-01T03:48:56.079Z,92.80
2017-08-01T03:51:25.129Z,92.80
2017-08-01T03:53:53.469Z,92.50
2017-08-01T03:56:21.758Z,93.00
2017-08-01T03:58:50.057Z,93.50
2017-08-01T04:01:18.391Z,93.20
2017-08-01T04:03:46.823Z,93.40
2017-08-01T04:06:15.863Z,93.30
2017-08-01T04:08:44.951Z,93.40
2017-08-01T04:11:13.995Z,93.70
2017-08-01T04:13:42.274Z,93.80
2017-08-01T04:16:10.927Z,93.40
2017-08-01T04:18:40.342Z,93.70
2017-08-01T04:23:38.598Z,93.80
2017-08-01T04:26:06.875Z,94.20
2017-08-01T04:28:35.146Z,94.50
2017-08-01T04:31:03.528Z,94.40
2017-08-01T04:33:31.806Z,94.20
2017-08-01T04:36:01.595Z,94.10
2017-08-01T04:41:00.095Z,94.40
2017-08-01T04:45:58.306Z,95.00
2017-08-01T04:48:26.583Z,95.00
2017-08-01T04:50:55.644Z,94.80
2017-08-01T04:53:24.006Z,94.80
2017-08-01T04:55:52.298Z,95.00
2017-08-01T05:00:50.487Z,95.00
2017-08-01T05:03:19.049Z,95.10
2017-08-01T05:05:48.454Z,95.30
2017-08-01T05:08:18.823Z,95.10
2017-08-01T05:10:48.599Z,94.90
2017-08-01T05:13:16.878Z,95.20
2017-08-01T05:15:45.958Z,95.50
2017-08-01T05:18:15.370Z,95.30
2017-08-01T05:20:43.642Z,95.50
2017-08-01T05:25:42.246Z,95.30
2017-08-01T05:28:10.527Z,95.30
2017-08-01T05:30:39.650Z,95.20
2017-08-01T05:33:07.926Z,95.10
2017-08-01T05:35:37.714Z,95.50
2017-08-01T05:38:06.038Z,95.40
2017-08-01T05:43:04.216Z,95.00
2017-08-01T05:45:32.555Z,95.00
2017-08-01T05:48:00.827Z,95.10
2017-08-01T05:50:30.238Z,94.80
2017-08-01T05:52:58.612Z,95.20
2017-08-01T05:55:26.938Z,95.40
2017-08-01T06:00:25.595Z,95.20
2017-08-01T06:02:53.903Z,94.70
2017-08-01T06:05:22.214Z,94.50
2017-08-01T06:07:51.328Z,94.80
2017-08-01T06:10:20.423Z,94.60
2017-08-01T06:12:48.707Z,94.20
2017-08-01T06:15:17.443Z,94.00
2017-08-01T06:20:15.627Z,93.90
2017-08-01T06:22:43.963Z,94.00
2017-08-01T06:27:42.874Z,93.20
2017-08-01T06:30:11.506Z,93.20
2017-08-01T06:32:40.192Z,93.50
2017-08-01T06:35:08.484Z,92.80
2017-08-01T06:37:36.815Z,92.20
2017-08-01T06:40:05.124Z,92.30
2017-08-01T06:42:33.427Z,91.90
2017-08-01T06:47:31.687Z,91.80
2017-08-01T06:50:01.094Z,91.40
2017-08-01T06:52:30.195Z,91.20
2017-08-01T06:54:59.258Z,91.00
2017-08-01T06:57:27.547Z,90.50
2017-08-01T06:59:55.895Z,90.50
2017-08-01T07:02:24.191Z,90.40
2017-08-01T07:04:53.640Z,87.90
2017-08-01T07:07:22.394Z,88.30
2017-08-01T07:09:50.691Z,88.80
2017-08-01T07:12:20.264Z,88.50
2017-08-01T07:14:48.607Z,88.20
2017-08-01T07:19:46.807Z,88.70
2017-08-01T07:22:15.161Z,89.10
2017-08-01T07:24:43.438Z,87.70
2017-08-01T07:29:41.967Z,88.70
2017-08-01T07:32:10.250Z,89.40
2017-08-01T07:34:38.935Z,89.20
2017-08-01T07:37:07.275Z,88.80
2017-08-01T07:39:35.566Z,88.70
2017-08-01T07:42:03.850Z,89.10
2017-08-01T07:44:33.682Z,89.60
2017-08-01T07:47:01.963Z,89.40
2017-08-01T07:49:30.238Z,88.40
2017-08-01T07:51:58.590Z,88.20
2017-08-01T07:54:26.934Z,87.20
2017-08-01T07:56:55.999Z,87.20
2017-08-01T07:59:25.243Z,88.30
2017-08-01T08:01:54.700Z,89.10
2017-08-01T08:04:23.012Z,88.50
2017-08-01T08:06:51.364Z,88.80
2017-08-01T08:09:19.682Z,90.30
2017-08-01T08:11:48.730Z,89.80
2017-08-01T08:14:17.831Z,89.60
2017-08-01T08:16:46.880Z,87.20
2017-08-01T08:19:15.159Z,87.80
2017-08-01T08:21:44.255Z,87.60
2017-08-01T08:24:13.302Z,87.30
2017-08-01T08:29:11.537Z,88.60
2017-08-01T08:31:39.843Z,89.70
2017-08-01T08:34:08.130Z,88.40
2017-08-01T08:36:36.767Z,89.20
2017-08-01T08:39:06.183Z,88.10
2017-08-01T08:41:34.471Z,86.80
2017-08-01T08:44:02.820Z,85.50
2017-08-01T08:49:01.036Z,86.20
2017-08-01T08:53:59.448Z,85.70
2017-08-01T08:58:58.790Z,86.20
2017-08-01T09:03:56.973Z,86.10
2017-08-01T09:06:25.333Z,86.70
2017-08-01T09:08:53.635Z,86.80
2017-08-01T09:11:22.333Z,87.10
2017-08-01T09:13:51.828Z,86.50
2017-08-01T09:16:20.135Z,86.40
2017-08-01T09:18:48.415Z,87.20
2017-08-01T09:21:16.768Z,88.20
2017-08-01T09:23:45.052Z,88.50
2017-08-01T09:26:14.467Z,89.00
2017-08-01T09:28:42.806Z,87.50
2017-08-01T09:31:11.090Z,88.30
2017-08-01T09:33:39.382Z,88.00
2017-08-01T09:36:08.494Z,87.40
2017-08-01T09:38:36.766Z,86.60
2017-08-01T09:41:05.806Z,86.20
2017-08-01T09:43:34.910Z,87.90
2017-08-01T09:46:03.190Z,86.00
2017-08-01T09:48:31.470Z,86.10
2017-08-01T09:50:59.796Z,86.00
2017-08-01T09:53:28.079Z,86.90
2017-08-01T09:55:56.378Z,85.40
2017-08-01T09:58:24.734Z,85.40
2017-08-01T10:00:53.783Z,84.00
2017-08-01T10:03:22.093Z,82.90
2017-08-01T10:05:50.455Z,82.30
2017-08-01T10:08:18.731Z,82.90
2017-08-01T10:13:21.781Z,80.30
2017-08-01T10:15:50.476Z,79.80
2017-08-01T10:18:19.523Z,79.00
2017-08-01T10:20:48.645Z,78.00
2017-08-01T10:23:17.842Z,78.00
2017-08-01T10:25:46.890Z,79.10
2017-08-01T10:28:15.223Z,77.30
2017-08-01T10:30:45.015Z,77.90
2017-08-01T10:33:13.295Z,77.20
2017-08-01T10:35:42.018Z,77.80
2017-08-01T10:38:10.316Z,77.30
2017-08-01T10:40:39.369Z,77.20
2017-08-01T10:43:07.710Z,77.90
2017-08-01T10:45:35.994Z,76.50
2017-08-01T10:48:04.272Z,75.80
2017-08-01T10:50:32.598Z,77.40
2017-08-01T10:53:00.886Z,77.00
2017-08-01T10:55:29.176Z,75.60
2017-08-01T10:57:57.504Z,76.40
2017-08-01T11:00:26.564Z,76.10
2017-08-01T11:02:55.638Z,74.80
2017-08-01T11:05:24.743Z,74.80
2017-08-01T11:07:53.031Z,75.00
2017-08-01T11:10:21.327Z,75.40
2017-08-01T11:12:49.706Z,76.30
2017-08-01T11:15:19.123Z,75.90
2017-08-01T11:17:47.407Z,74.50
2017-08-01T11:20:16.499Z,76.30
2017-08-01T11:22:45.547Z,74.40
2017-08-01T11:25:13.844Z,73.30
2017-08-01T11:27:42.170Z,72.10
2017-08-01T11:30:10.460Z,72.60
2017-08-01T11:32:38.744Z,70.00
2017-08-01T11:35:07.059Z,68.70
2017-08-01T11:37:36.106Z,67.90
2017-08-01T11:40:05.159Z,68.20
2017-08-01T11:42:33.502Z,67.60
2017-08-01T11:45:02.179Z,68.80
2017-08-01T11:47:30.462Z,69.00
2017-08-01T11:49:58.794Z,68.80
2017-08-01T11:52:27.078Z,70.20
2017-08-01T11:54:55.372Z,69.10
2017-08-01T11:57:23.875Z,70.10
2017-08-01T11:59:52.944Z,70.10
2017-08-01T12:02:21.240Z,70.70
2017-08-01T12:04:49.570Z,71.10
2017-08-01T12:09:47.792Z,70.90
2017-08-01T12:12:16.119Z,72.30
2017-08-01T12:14:44.402Z,73.10
2017-08-01T12:17:13.092Z,73.10
2017-08-01T12:19:42.975Z,73.50
2017-08-01T12:22:12.027Z,73.70
2017-08-01T12:24:41.109Z,74.40
2017-08-01T12:27:09.480Z,76.10
2017-08-01T12:29:38.155Z,77.60
2017-08-01T12:32:06.830Z,79.10
2017-08-01T12:34:35.163Z,80.00
2017-08-01T12:37:04.583Z,78.90
2017-08-01T12:39:32.867Z,80.00
2017-08-01T12:42:01.490Z,79.60
2017-08-01T12:44:30.910Z,78.60
2017-08-01T12:46:59.202Z,79.20
2017-08-01T12:49:27.520Z,80.30
2017-08-01T12:51:55.814Z,79.50
2017-08-01T12:54:24.122Z,78.90
2017-08-01T13:01:52.672Z,79.10
2017-08-01T13:04:21.031Z,78.70
2017-08-01T13:06:50.127Z,76.80
2017-08-01T13:09:18.402Z,75.50
2017-08-01T13:11:48.226Z,76.60
2017-08-01T13:14:16.502Z,77.90
2017-08-01T13:16:44.771Z,77.90
2017-08-01T13:19:13.087Z,79.20
2017-08-01T13:21:41.371Z,78.80
2017-08-01T13:24:09.661Z,76.10
2017-08-01T13:26:37.979Z,77.10
2017-08-01T13:29:06.255Z,76.60
2017-08-01T13:31:35.299Z,78.70
2017-08-01T13:34:03.643Z,79.20
2017-08-01T13:36:31.911Z,77.40
2017-08-01T13:39:00.182Z,75.60
2017-08-01T13:41:28.499Z,75.00
2017-08-01T13:43:56.790Z,73.90
2017-08-01T13:46:25.846Z,76.10
2017-08-01T13:48:54.468Z,77.20
2017-08-01T13:51:23.888Z,74.70
2017-08-01T13:53:52.187Z,70.00
2017-08-01T13:56:20.535Z,71.80
2017-08-01T13:58:48.815Z,72.30
2017-08-01T14:01:17.082Z,73.10
2017-08-01T14:03:45.402Z,70.00
2017-08-01T14:06:14.815Z,70.00
2017-08-01T14:08:43.091Z,69.50
2017-08-01T14:11:11.439Z,68.00
2017-08-01T14:13:39.715Z,67.90
2017-08-01T14:16:07.995Z,67.70
2017-08-01T14:21:06.206Z,68.30
2017-08-01T14:23:34.482Z,66.00
2017-08-01T14:26:03.570Z,68.00
2017-08-01T14:28:32.624Z,68.80
2017-08-01T14:31:00.898Z,68.50
2017-08-01T14:33:30.012Z,67.40
2017-08-01T14:35:58.283Z,68.40
2017-08-01T14:38:26.579Z,69.30
2017-08-01T14:40:55.792Z,70.30
2017-08-01T14:43:24.478Z,71.80
2017-08-01T14:48:23.090Z,71.80
2017-08-01T14:50:51.384Z,72.40
2017-08-01T14:53:19.671Z,72.90
2017-08-01T14:55:48.274Z,73.60
2017-08-01T14:58:17.694Z,73.10
2017-08-01T15:00:45.975Z,72.00
2017-08-01T15:03:14.303Z,72.50
2017-08-01T15:05:43.355Z,73.00
2017-08-01T15:08:11.655Z,74.80
2017-08-01T15:10:40.784Z,75.50
2017-08-01T15:13:09.856Z,75.20
2017-08-01T15:18:08.090Z,75.80
2017-08-01T15:20:36.371Z,75.50
2017-08-01T15:23:04.644Z,77.20
2017-08-01T15:25:32.970Z,77.40
2017-08-01T15:28:01.247Z,76.60
2017-08-01T15:30:29.514Z,75.60
2017-08-01T15:32:58.609Z,76.90
2017-08-01T15:35:26.891Z,78.60
2017-08-01T15:37:55.189Z,81.40
2017-08-01T15:40:23.543Z,83.10
2017-08-01T15:42:51.834Z,85.10
2017-08-01T15:45:20.110Z,87.60
2017-08-01T15:47:49.222Z,89.50
2017-08-01T15:50:18.266Z,90.20
2017-08-01T15:52:47.315Z,90.80
2017-08-01T15:55:15.671Z,90.90
2017-08-01T15:57:43.960Z,91.20
2017-08-01T16:00:12.244Z,91.50
2017-08-01T16:02:42.080Z,91.90
2017-08-01T16:05:11.875Z,92.40
2017-08-01T16:07:40.174Z,92.50
2017-08-01T16:10:08.520Z,92.60
2017-08-01T16:12:36.802Z,93.00
2017-08-01T16:15:05.088Z,92.30
2017-08-01T16:17:33.766Z,92.30
2017-08-01T16:20:03.179Z,91.80
2017-08-01T16:22:31.452Z,92.10
2017-08-01T16:24:59.771Z,92.90
2017-08-01T16:27:28.043Z,92.70
2017-08-01T16:29:57.082Z,92.80
2017-08-01T16:32:25.423Z,93.50
2017-08-01T16:34:54.484Z,93.30
2017-08-01T16:39:53.839Z,93.20
2017-08-01T16:42:22.131Z,93.80
2017-08-01T16:44:50.425Z,94.10
2017-08-01T16:47:18.744Z,93.80
2017-08-01T16:49:48.150Z,93.80
2017-08-01T16:52:17.563Z,93.10
2017-08-01T16:54:46.271Z,93.00
2017-08-01T16:57:14.543Z,92.80
2017-08-01T16:59:43.578Z,92.40
2017-08-01T17:02:13.051Z,92.80
2017-08-01T17:04:41.336Z,92.80
2017-08-01T17:07:09.610Z,92.30
2017-08-01T17:09:37.923Z,92.90
2017-08-01T17:12:06.960Z,93.20
2017-08-01T17:14:35.227Z,93.20
2017-08-01T17:17:03.855Z,92.60
2017-08-01T17:19:33.268Z,92.30
2017-08-01T17:22:01.538Z,92.90
2017-08-01T17:26:59.750Z,93.70
2017-08-01T17:29:28.018Z,92.30
2017-08-01T17:31:56.344Z,92.20
2017-08-01T17:34:25.021Z,93.00
2017-08-01T17:36:53.317Z,92.90
2017-08-01T17:39:22.418Z,92.70
2017-08-01T17:41:50.705Z,92.60
2017-08-01T17:44:19.763Z,92.80
2017-08-01T17:46:49.239Z,93.00
2017-08-01T17:49:17.507Z,92.90
2017-08-01T17:51:45.779Z,92.70
2017-08-01T17:54:14.862Z,93.30
2017-08-01T17:56:43.135Z,93.20
2017-08-01T17:59:11.415Z,93.40
2017-08-01T18:01:41.239Z,93.40
2017-08-01T18:04:09.513Z,93.80
2017-08-01T18:06:37.786Z,93.40
2017-08-01T18:09:06.122Z,92.80
2017-08-01T18:11:34.391Z,92.60
2017-08-01T18:14:02.658Z,92.60
2017-08-01T18:16:31.270Z,92.40
2017-08-01T18:19:00.314Z,92.90
2017-08-01T18:21:28.591Z,92.50
2017-08-01T18:23:56.951Z,92.30
2017-08-01T18:26:25.227Z,93.00
2017-08-01T18:28:53.525Z,92.80
2017-08-01T18:31:21.852Z,92.90
2017-08-01T18:33:50.902Z,93.30
2017-08-01T18:36:19.969Z,93.50
2017-08-01T18:38:49.046Z,93.20
2017-08-01T18:41:17.314Z,92.60
2017-08-01T18:43:45.988Z,93.10
2017-08-01T18:46:15.439Z,93.10
2017-08-01T18:48:43.710Z,93.20
2017-08-01T18:51:11.987Z,93.70
2017-08-01T18:53:40.984Z,93.80
2017-08-01T18:56:09.672Z,93.40
2017-08-01T18:58:37.947Z,93.80
2017-08-01T19:01:06.298Z,94.10
2017-08-01T19:03:34.570Z,94.40
2017-08-01T19:06:02.843Z,94.00
2017-08-01T19:11:01.058Z,94.10
2017-08-01T19:13:29.330Z,94.40
2017-08-01T19:15:57.649Z,94.50
2017-08-01T19:18:25.930Z,94.30
2017-08-01T19:20:54.987Z,93.80
2017-08-01T19:23:24.927Z,93.80
2017-08-01T19:28:23.151Z,94.30
2017-08-01T19:30:51.580Z,94.00
2017-08-01T19:33:20.884Z,94.00
2017-08-01T19:38:20.341Z,94.80
2017-08-01T19:40:48.623Z,94.40
2017-08-01T19:43:16.891Z,94.30
2017-08-01T19:45:46.418Z,94.60
2017-08-01T19:48:14.683Z,94.50
2017-08-01T19:50:42.960Z,94.30
2017-08-01T19:53:11.579Z,94.70
2017-08-01T19:55:40.250Z,94.80
2017-08-01T19:58:09.670Z,94.60
2017-08-01T20:08:07.340Z,94.80
2017-08-01T20:10:35.614Z,95.00
2017-08-01T20:13:05.394Z,94.60
2017-08-01T20:15:34.120Z,94.60
2017-08-01T20:18:03.532Z,94.70
2017-08-01T20:20:31.808Z,94.80
2017-08-01T20:23:00.129Z,95.20
2017-08-01T20:25:28.408Z,95.40
2017-08-01T20:27:58.195Z,95.40
2017-08-01T20:30:27.427Z,95.60
2017-08-01T20:32:56.855Z,95.50
2017-08-01T20:35:26.301Z,95.70
2017-08-01T20:37:55.404Z,95.60
2017-08-01T20:42:54.862Z,95.90
2017-08-01T20:47:53.000Z,96.00
2017-08-01T20:50:23.202Z,95.50
2017-08-01T20:52:53.077Z,96.00
2017-08-01T20:55:21.425Z,96.00
2017-08-01T20:57:49.795Z,95.70
2017-08-01T21:00:18.084Z,96.20
2017-08-01T21:02:47.130Z,96.70
2017-08-01T21:05:15.884Z,96.30
2017-08-01T21:07:44.166Z,96.20
2017-08-01T21:10:12.450Z,96.50
2017-08-01T21:12:41.965Z,96.80
2017-08-01T21:15:10.656Z,97.00
2017-08-01T21:17:38.948Z,96.70
2017-08-01T21:20:07.287Z,96.40
2017-08-01T21:22:36.341Z,96.50
2017-08-01T21:25:04.623Z,96.70
2017-08-01T21:27:32.963Z,96.70
2017-08-01T21:30:02.747Z,97.10
2017-08-01T21:32:31.790Z,97.10
2017-08-01T21:35:00.531Z,97.10
2017-08-01T21:37:28.818Z,97.20
2017-08-01T21:39:57.119Z,97.30
2017-08-01T21:42:26.263Z,97.40
2017-08-01T21:44:55.463Z,97.60
2017-08-01T21:47:24.544Z,97.80
2017-08-01T21:50:30.323Z,97.70
2017-08-01T21:52:58.612Z,97.50
2017-08-01T21:55:26.922Z,97.60
2017-08-01T22:00:25.948Z,97.50
2017-08-01T22:02:54.264Z,97.60
2017-08-01T22:05:22.624Z,97.30
2017-08-01T22:07:52.447Z,97.10
2017-08-01T22:10:20.764Z,97.10
2017-08-01T22:12:51.008Z,97.30
2017-08-01T22:15:19.300Z,97.60
2017-08-01T22:17:47.594Z,97.70
2017-08-01T22:20:16.195Z,97.50
2017-08-01T22:22:44.884Z,97.50
2017-08-01T22:27:44.547Z,98.30
2017-08-01T22:30:12.827Z,97.70
2017-08-01T22:32:41.516Z,97.70
2017-08-01T22:35:10.250Z,98.00
2017-08-01T22:37:38.553Z,97.70
2017-08-01T22:40:06.839Z,97.40
2017-08-01T22:45:06.209Z,98.00
2017-08-01T22:47:35.265Z,98.20
2017-08-01T22:50:03.607Z,97.90
2017-08-01T22:52:32.662Z,98.30
2017-08-01T22:55:00.954Z,98.30
2017-08-01T22:57:29.283Z,98.50
2017-08-01T22:59:57.572Z,98.30
2017-08-01T23:02:27.002Z,98.30
2017-08-01T23:04:55.338Z,98.10
2017-08-01T23:09:53.184Z,98.10
2017-08-01T23:12:21.856Z,98.10
2017-08-01T23:14:50.171Z,98.30
2017-08-01T23:17:19.961Z,98.60
2017-08-01T23:19:48.288Z,98.60
2017-08-01T23:22:16.574Z,98.50
2017-08-01T23:24:44.858Z,98.40
2017-08-01T23:27:13.980Z,98.50
2017-08-01T23:32:12.181Z,98.20
2017-08-01T23:34:40.526Z,97.90
2017-08-01T23:37:08.822Z,97.60
2017-08-01T23:39:37.100Z,98.00
2017-08-01T23:42:05.447Z,98.30
2017-08-01T23:47:04.003Z,98.70
2017-08-01T23:49:33.099Z,98.40
2017-08-01T23:52:02.142Z,98.40
2017-08-01T23:54:31.558Z,98.50
2017-08-01T23:56:59.898Z,98.60
2017-08-01T23:59:28.190Z,98.60
